Pickering, United Kingdom
Current Conditions -  °F | °C
As of 11:50 PM on Sunday 21 Dec 2014 (Local Time) from EGXU Reporting Station
Broken Clouds Broken Clouds  
Wind Chill: 57°   Ceiling: 2700
Heat Index: 57°   Visibility: 6mi
Dew Point: 57°   Wind: 31mph
Humidity: 100%   Direction: 250°WSW
Pressure: 29.8"   Gusts: 43mph
Location:  54.25°N, 0.77°W
Report Text: EGXU 212350Z AUTO 25027G37KT 9999 // SCT022/// BKN027/// 14/14 Q1009
Loading
Personal Weather Stations






























Interactive Weather Map New forecast layout! Learn more

10-Day Weather Forecast

Advertisements
Track Severe Weather on mobile